Time;durP1;ratioP1;P1;durP2;ratioP2;P2;SDS_P1;SDS_P2;PMS_P1;PMS_P2;Temp;Humidity;BMP_temperature;BMP_pressure;BME280_temperature;BME280_humidity;BME280_pressure;Samples;Min_cycle;Max_cycle;Signal;HPM_P1;HPM_P2
2022/02/18 00:00:13;;;;;;;13.85;2.92;;;5.10;99.90;;;;;;5066451;28;20485;-71
2022/02/18 00:02:39;;;;;;;19.88;3.40;;;5.20;99.90;;;;;;5050486;28;20080;-70
2022/02/18 00:05:05;;;;;;;19.67;3.60;;;5.20;99.90;;;;;;5054047;28;20068;-70
2022/02/18 00:07:31;;;;;;;17.83;2.80;;;5.20;99.90;;;;;;5067665;28;20098;-70
2022/02/18 00:09:56;;;;;;;14.75;3.13;;;5.10;99.90;;;;;;5038154;28;20041;-70
2022/02/18 00:12:22;;;;;;;16.05;2.90;;;5.10;99.90;;;;;;5066307;28;20055;-71
2022/02/18 00:14:47;;;;;;;13.70;3.05;;;5.10;99.90;;;;;;5065953;28;20044;-70
2022/02/18 00:17:13;;;;;;;10.77;2.25;;;5.00;99.90;;;;;;5066234;28;20129;-70
2022/02/18 00:19:39;;;;;;;13.75;3.03;;;5.10;99.90;;;;;;5050573;28;20072;-70
2022/02/18 00:22:04;;;;;;;17.35;3.80;;;5.10;99.90;;;;;;5067090;28;20041;-71
2022/02/18 00:24:30;;;;;;;14.65;3.38;;;5.10;99.90;;;;;;5063074;28;20051;-71
2022/02/18 00:26:56;;;;;;;16.85;3.22;;;5.00;99.90;;;;;;5066291;28;20138;-71
2022/02/18 00:29:22;;;;;;;17.67;3.38;;;5.00;99.90;;;;;;5066850;28;20048;-71
2022/02/18 00:31:48;;;;;;;10.35;2.53;;;4.90;99.90;;;;;;5065457;28;20040;-70
2022/02/18 00:34:14;;;;;;;12.85;2.63;;;5.00;99.90;;;;;;5066589;28;20049;-70
2022/02/18 00:36:40;;;;;;;17.15;3.65;;;4.90;99.90;;;;;;5084058;28;20040;-70
2022/02/18 00:39:05;;;;;;;17.33;3.45;;;4.90;99.90;;;;;;5065918;28;20101;-71
2022/02/18 00:41:31;;;;;;;14.63;2.30;;;4.80;99.90;;;;;;5065651;28;20037;-70
2022/02/18 00:43:57;;;;;;;15.68;3.03;;;4.90;99.90;;;;;;5065851;28;20040;-71
2022/02/18 00:46:22;;;;;;;19.88;2.95;;;4.80;99.90;;;;;;5065454;28;20040;-70
2022/02/18 00:48:48;;;;;;;12.98;2.28;;;4.70;99.90;;;;;;5065774;28;20065;-71
2022/02/18 00:51:14;;;;;;;19.42;3.17;;;4.70;99.90;;;;;;5052809;28;20040;-70
2022/02/18 00:53:41;;;;;;;12.80;2.22;;;4.60;99.90;;;;;;5067405;28;20071;-70
2022/02/18 00:56:07;;;;;;;20.15;4.50;;;4.50;99.90;;;;;;5064357;28;20040;-70
2022/02/18 00:58:32;;;;;;;12.85;3.95;;;4.60;99.90;;;;;;5066243;28;20091;-70
2022/02/18 01:00:58;;;;;;;12.77;2.67;;;4.60;99.90;;;;;;5066803;28;20098;-70
2022/02/18 01:03:24;;;;;;;18.73;2.88;;;4.60;99.90;;;;;;5084900;28;20044;-70
2022/02/18 01:05:50;;;;;;;17.05;3.72;;;4.70;99.90;;;;;;5082908;28;20048;-70
2022/02/18 01:08:17;;;;;;;16.25;2.55;;;4.70;99.90;;;;;;5065745;28;20041;-70
2022/02/18 01:10:42;;;;;;;19.67;2.38;;;4.90;99.90;;;;;;5062907;28;20080;-70
2022/02/18 01:13:08;;;;;;;18.00;3.20;;;5.00;99.90;;;;;;5066105;28;20086;-70
2022/02/18 01:15:34;;;;;;;12.45;2.75;;;5.00;99.90;;;;;;5084088;28;20045;-70
2022/02/18 01:17:59;;;;;;;14.32;2.83;;;5.00;99.90;;;;;;5066231;28;20049;-71
2022/02/18 01:20:25;;;;;;;15.48;2.25;;;5.00;99.90;;;;;;5066026;28;20044;-71
2022/02/18 01:22:51;;;;;;;12.90;2.25;;;4.90;99.90;;;;;;5083723;28;20048;-70
2022/02/18 01:25:17;;;;;;;14.60;2.28;;;4.80;99.90;;;;;;5075306;28;20099;-70
2022/02/18 01:27:43;;;;;;;16.45;3.63;;;4.70;99.90;;;;;;5038688;28;20040;-70
2022/02/18 01:30:09;;;;;;;13.13;2.72;;;4.60;99.90;;;;;;5083397;28;20048;-70
2022/02/18 01:32:36;;;;;;;11.00;2.03;;;4.50;99.90;;;;;;5065076;28;20052;-70
2022/02/18 01:35:02;;;;;;;9.68;2.03;;;4.40;99.90;;;;;;5065377;28;20067;-70
2022/02/18 01:37:28;;;;;;;9.60;1.75;;;4.20;99.90;;;;;;5065214;28;20047;-70
2022/02/18 01:39:54;;;;;;;14.82;2.45;;;4.10;99.90;;;;;;5033613;28;20041;-70
2022/02/18 01:42:20;;;;;;;17.13;3.47;;;4.20;99.90;;;;;;5084091;28;20316;-70
2022/02/18 01:44:48;;;;;;;13.95;2.88;;;4.10;99.90;;;;;;5066060;28;20112;-70
2022/02/18 01:47:22;;;;;;;15.80;3.72;;;4.10;99.90;;;;;;5066014;28;20036;-71
2022/02/18 01:49:53;;;;;;;14.85;2.10;;;4.20;99.90;;;;;;5059962;28;20512;-70
2022/02/18 01:52:20;;;;;;;13.13;2.20;;;4.30;99.90;;;;;;5035045;28;20052;-70
2022/02/18 01:54:46;;;;;;;9.38;2.10;;;4.30;99.90;;;;;;5065336;28;20048;-70
2022/02/18 01:57:14;;;;;;;14.73;2.15;;;4.30;99.90;;;;;;5074291;28;20051;-70
2022/02/18 01:59:40;;;;;;;13.75;2.80;;;4.30;99.90;;;;;;5065225;28;20048;-70
2022/02/18 02:02:05;;;;;;;18.15;2.60;;;4.40;99.90;;;;;;5064906;28;20059;-70
2022/02/18 02:04:32;;;;;;;12.00;2.53;;;4.50;99.90;;;;;;5057893;28;20499;-71
2022/02/18 02:07:02;;;;;;;8.75;1.80;;;4.50;99.90;;;;;;5034762;28;20045;-70
2022/02/18 02:09:28;;;;;;;10.63;1.67;;;4.60;99.90;;;;;;5058499;28;20464;-70
2022/02/18 02:11:54;;;;;;;11.70;2.13;;;4.60;99.90;;;;;;5069343;28;20045;-70
2022/02/18 02:14:19;;;;;;;8.88;2.17;;;4.70;99.90;;;;;;5069927;28;20074;-70
2022/02/18 02:16:45;;;;;;;17.90;2.53;;;4.50;99.90;;;;;;5068718;28;20052;-70
2022/02/18 02:19:11;;;;;;;9.52;2.38;;;4.60;99.90;;;;;;5068587;28;20079;-70
2022/02/18 02:21:37;;;;;;;14.20;2.30;;;4.70;99.90;;;;;;5086896;28;20126;-70
2022/02/18 02:24:04;;;;;;;13.00;2.58;;;4.60;99.90;;;;;;5051296;28;20055;-70
2022/02/18 02:26:30;;;;;;;11.23;1.92;;;4.50;99.90;;;;;;5066180;28;20090;-70
2022/02/18 02:28:56;;;;;;;22.70;4.70;;;4.50;99.90;;;;;;5068468;28;20052;-70
2022/02/18 02:31:23;;;;;;;13.02;2.10;;;4.50;99.90;;;;;;5068119;28;20056;-70
2022/02/18 02:33:49;;;;;;;13.95;2.58;;;4.50;99.90;;;;;;5069101;28;20076;-70
2022/02/18 02:36:14;;;;;;;17.17;3.65;;;4.60;99.90;;;;;;5067946;28;20075;-70
2022/02/18 02:38:40;;;;;;;9.73;2.90;;;4.50;99.90;;;;;;5068539;28;20044;-70
2022/02/18 02:41:06;;;;;;;14.95;2.53;;;4.60;99.90;;;;;;5068408;28;20570;-70
2022/02/18 02:43:32;;;;;;;12.52;2.30;;;4.60;99.90;;;;;;5067839;28;20049;-70
2022/02/18 02:45:57;;;;;;;18.75;3.08;;;4.70;99.90;;;;;;5067697;28;20040;-70
2022/02/18 02:48:23;;;;;;;12.02;2.30;;;4.70;99.90;;;;;;5067548;28;20052;-70
2022/02/18 02:50:49;;;;;;;18.58;2.92;;;4.60;99.90;;;;;;5056336;28;20052;-70
2022/02/18 02:53:14;;;;;;;17.90;2.55;;;4.60;99.90;;;;;;5067878;28;20052;-70
2022/02/18 02:55:40;;;;;;;14.50;3.10;;;4.70;99.90;;;;;;5048444;28;20059;-70
2022/02/18 02:58:06;;;;;;;13.48;2.97;;;4.70;99.90;;;;;;5056441;28;20049;-70
2022/02/18 03:00:32;;;;;;;10.30;2.22;;;4.70;99.90;;;;;;5085743;28;20040;-70
2022/02/18 03:02:57;;;;;;;17.35;3.10;;;4.70;99.90;;;;;;5067328;28;20107;-70
2022/02/18 03:05:23;;;;;;;16.48;2.95;;;4.70;99.90;;;;;;5057761;28;20063;-70
2022/02/18 03:07:49;;;;;;;15.10;2.40;;;4.70;99.90;;;;;;5067672;28;20067;-70
2022/02/18 03:10:14;;;;;;;12.98;2.30;;;4.70;99.90;;;;;;5066601;28;20040;-70
2022/02/18 03:12:40;;;;;;;9.13;2.03;;;4.80;99.90;;;;;;5067629;28;20048;-70
2022/02/18 03:15:07;;;;;;;15.75;2.35;;;4.70;99.90;;;;;;5066950;28;20074;-70
2022/02/18 03:17:32;;;;;;;15.35;2.00;;;4.80;99.90;;;;;;5073268;28;20056;-70
2022/02/18 03:19:59;;;;;;;11.95;2.53;;;4.80;99.90;;;;;;5068548;28;20044;-70
2022/02/18 03:22:24;;;;;;;14.23;2.40;;;4.80;99.90;;;;;;5037788;28;20048;-70
2022/02/18 03:24:50;;;;;;;12.85;2.42;;;5.00;99.90;;;;;;5055026;28;20057;-70
2022/02/18 03:27:16;;;;;;;12.02;2.63;;;4.90;99.90;;;;;;5066967;28;20040;-70
2022/02/18 03:29:42;;;;;;;16.83;2.65;;;5.00;99.90;;;;;;5067220;28;20058;-70
2022/02/18 03:32:08;;;;;;;13.00;2.53;;;5.10;99.90;;;;;;5085307;28;20044;-70
2022/02/18 03:34:36;;;;;;;10.18;2.30;;;5.00;99.90;;;;;;5085170;28;20264;-70
2022/02/18 03:37:03;;;;;;;10.23;2.22;;;5.20;99.90;;;;;;5066724;28;20424;-70
2022/02/18 03:39:29;;;;;;;6.63;1.60;;;5.40;99.90;;;;;;5067171;28;20484;-70
2022/02/18 03:41:54;;;;;;;14.35;2.50;;;5.30;99.90;;;;;;5066978;28;20082;-70
2022/02/18 03:44:20;;;;;;;8.73;1.65;;;5.30;99.90;;;;;;5066534;28;20056;-70
2022/02/18 03:46:46;;;;;;;9.02;1.60;;;5.40;99.90;;;;;;5066995;28;20047;-70
2022/02/18 03:49:11;;;;;;;12.43;1.88;;;5.60;99.90;;;;;;5085241;28;20048;-70
2022/02/18 03:51:37;;;;;;;8.85;1.95;;;5.50;99.90;;;;;;5067225;28;20079;-70
2022/02/18 03:54:03;;;;;;;7.82;1.90;;;5.50;99.90;;;;;;5068056;28;20049;-70
2022/02/18 03:56:28;;;;;;;12.45;1.95;;;5.50;99.90;;;;;;5061608;28;20045;-70
2022/02/18 03:58:54;;;;;;;13.27;2.22;;;5.60;99.90;;;;;;5066736;28;20044;-70
2022/02/18 04:01:20;;;;;;;11.35;1.90;;;5.40;99.90;;;;;;5067529;28;20098;-70
2022/02/18 04:03:46;;;;;;;12.60;2.17;;;5.60;99.90;;;;;;5084492;28;20103;-70
2022/02/18 04:06:12;;;;;;;9.48;1.90;;;5.60;99.90;;;;;;5048960;28;20056;-70
2022/02/18 04:08:38;;;;;;;8.18;1.65;;;5.50;99.90;;;;;;5048687;28;20048;-70
2022/02/18 04:11:04;;;;;;;9.63;2.45;;;5.60;99.90;;;;;;5062423;28;20054;-70
2022/02/18 04:13:29;;;;;;;8.73;1.88;;;5.60;99.90;;;;;;5084307;28;20044;-70
2022/02/18 04:15:55;;;;;;;13.15;3.13;;;5.70;99.90;;;;;;5066709;28;20100;-70
2022/02/18 04:18:21;;;;;;;13.45;3.03;;;5.60;99.90;;;;;;5067040;28;20049;-70
2022/02/18 04:20:46;;;;;;;8.68;1.80;;;5.70;99.90;;;;;;5066155;28;20040;-70
2022/02/18 04:23:12;;;;;;;8.82;2.13;;;5.90;99.90;;;;;;5063675;28;20048;-70
2022/02/18 04:25:38;;;;;;;10.18;2.63;;;5.70;99.90;;;;;;5053881;28;20080;-70
2022/02/18 04:28:05;;;;;;;11.07;2.10;;;5.70;99.90;;;;;;5066440;28;20044;-70
2022/02/18 04:30:32;;;;;;;14.30;2.70;;;5.80;99.90;;;;;;5066196;28;20090;-70
2022/02/18 04:32:58;;;;;;;11.65;2.35;;;5.70;99.90;;;;;;5039178;28;20114;-70
2022/02/18 04:35:24;;;;;;;10.68;2.40;;;5.70;99.90;;;;;;5065740;28;20581;-70
2022/02/18 04:37:50;;;;;;;9.68;2.33;;;5.80;99.90;;;;;;5065799;28;20104;-70
2022/02/18 04:40:17;;;;;;;11.45;2.60;;;6.00;99.90;;;;;;5066520;28;20037;-71
2022/02/18 04:42:43;;;;;;;11.68;2.70;;;6.10;99.90;;;;;;5066848;28;20049;-70
2022/02/18 04:45:10;;;;;;;11.05;2.78;;;6.10;99.90;;;;;;5085492;28;20047;-70
2022/02/18 04:47:35;;;;;;;13.52;2.78;;;6.10;99.90;;;;;;5065835;28;20090;-70
2022/02/18 04:50:03;;;;;;;12.38;3.35;;;6.20;99.90;;;;;;5075921;28;20084;-71
2022/02/18 04:52:28;;;;;;;13.05;3.65;;;6.10;99.90;;;;;;5100517;28;20073;-70
2022/02/18 04:54:54;;;;;;;18.75;3.70;;;6.20;99.90;;;;;;5068483;28;20044;-70
2022/02/18 04:57:20;;;;;;;14.73;3.47;;;6.20;99.90;;;;;;5074090;28;20143;-70
2022/02/18 04:59:46;;;;;;;12.98;4.05;;;6.10;99.90;;;;;;5085814;28;20083;-70
2022/02/18 05:02:13;;;;;;;15.80;3.70;;;6.10;99.90;;;;;;5081042;28;20127;-70
2022/02/18 05:04:40;;;;;;;13.85;3.55;;;6.10;99.90;;;;;;5085671;28;20048;-70
2022/02/18 05:07:06;;;;;;;19.92;3.97;;;6.30;99.90;;;;;;5066349;28;20125;-70
2022/02/18 05:09:32;;;;;;;16.35;3.53;;;6.10;99.90;;;;;;5076349;28;20053;-70
2022/02/18 05:11:58;;;;;;;19.13;3.97;;;6.30;99.90;;;;;;5083130;28;20040;-70
2022/02/18 05:14:24;;;;;;;15.32;3.58;;;6.10;99.90;;;;;;5086201;28;20202;-71
2022/02/18 05:16:50;;;;;;;21.60;3.55;;;6.30;99.90;;;;;;5085902;28;20036;-70
2022/02/18 05:19:15;;;;;;;13.85;3.88;;;6.30;99.90;;;;;;5086113;28;20050;-70
2022/02/18 05:21:41;;;;;;;21.27;4.35;;;6.30;99.90;;;;;;5105074;28;20089;-70
2022/02/18 05:24:08;;;;;;;16.77;4.53;;;6.30;99.90;;;;;;5095563;28;20072;-70
2022/02/18 05:26:34;;;;;;;23.30;5.03;;;6.40;99.90;;;;;;5080576;28;20188;-70
2022/02/18 05:29:00;;;;;;;17.92;4.60;;;6.30;99.90;;;;;;5068565;28;20062;-70
2022/02/18 05:31:26;;;;;;;19.05;4.00;;;6.40;99.90;;;;;;5085220;28;20079;-70
2022/02/18 05:33:53;;;;;;;20.35;4.10;;;6.50;99.90;;;;;;5085139;28;20048;-70
2022/02/18 05:36:19;;;;;;;12.23;3.70;;;6.50;99.90;;;;;;5084778;28;20084;-70
2022/02/18 05:38:46;;;;;;;19.08;4.75;;;6.40;99.90;;;;;;5086420;28;20105;-70
2022/02/18 05:41:13;;;;;;;23.67;4.32;;;6.20;99.90;;;;;;5085992;28;20115;-70
2022/02/18 05:43:40;;;;;;;23.25;4.07;;;6.20;99.90;;;;;;5087339;28;20048;-70
2022/02/18 05:46:06;;;;;;;29.02;6.20;;;6.20;99.90;;;;;;5088416;28;20039;-70
2022/02/18 05:48:32;;;;;;;18.95;4.30;;;6.40;99.90;;;;;;5107154;28;20073;-71
2022/02/18 05:50:59;;;;;;;20.20;4.20;;;6.30;99.90;;;;;;5072090;28;20044;-70
2022/02/18 05:53:25;;;;;;;22.60;4.57;;;6.40;99.90;;;;;;5090356;28;20048;-70
2022/02/18 05:55:50;;;;;;;19.70;3.65;;;6.40;99.90;;;;;;5086364;28;20407;-70
2022/02/18 05:58:16;;;;;;;19.10;4.47;;;6.40;99.90;;;;;;5088945;28;20048;-70
2022/02/18 06:00:42;;;;;;;21.00;4.43;;;6.40;99.90;;;;;;5088311;28;20130;-70
2022/02/18 06:03:07;;;;;;;23.30;5.03;;;6.20;99.90;;;;;;5088500;28;20052;-71
2022/02/18 06:05:33;;;;;;;23.48;4.47;;;6.20;99.90;;;;;;5098759;28;20104;-71
2022/02/18 06:07:59;;;;;;;23.45;5.07;;;6.10;99.90;;;;;;5032684;28;20040;-71
2022/02/18 06:10:24;;;;;;;18.85;4.20;;;6.20;99.90;;;;;;5091339;28;20040;-71
2022/02/18 06:12:51;;;;;;;20.48;4.82;;;6.00;99.90;;;;;;5018462;28;20085;-71
2022/02/18 06:15:17;;;;;;;21.52;5.38;;;6.00;99.90;;;;;;5073723;28;20499;-71
2022/02/18 06:17:44;;;;;;;28.25;6.78;;;5.90;99.90;;;;;;5083430;28;20040;-71
2022/02/18 06:20:10;;;;;;;19.77;5.55;;;5.80;99.90;;;;;;5082603;28;20079;-73
2022/02/18 06:22:36;;;;;;;24.02;4.80;;;5.90;99.90;;;;;;5072972;28;20048;-73
2022/02/18 06:25:07;;;;;;;19.98;4.70;;;5.80;99.90;;;;;;5082741;28;20083;-73
2022/02/18 06:27:33;;;;;;;25.42;5.75;;;5.70;99.90;;;;;;5050420;28;20041;-74
2022/02/18 06:29:59;;;;;;;23.35;6.45;;;5.80;99.90;;;;;;5067032;28;20036;-72
2022/02/18 06:32:24;;;;;;;15.50;4.68;;;5.70;99.90;;;;;;5020778;28;20096;-73
2022/02/18 06:34:52;;;;;;;28.13;6.75;;;5.80;99.90;;;;;;5080269;28;20380;-73
2022/02/18 06:37:18;;;;;;;22.42;5.10;;;5.70;99.90;;;;;;5070854;28;20055;-72
2022/02/18 06:39:44;;;;;;;26.48;5.47;;;5.90;99.90;;;;;;5081408;28;20036;-71
2022/02/18 06:42:10;;;;;;;23.90;6.55;;;5.90;99.90;;;;;;5074313;28;20043;-73
2022/02/18 06:44:36;;;;;;;21.55;6.85;;;5.80;99.90;;;;;;5093490;28;20056;-72
2022/02/18 06:47:02;;;;;;;25.67;6.63;;;5.90;99.90;;;;;;5080506;28;20225;-72
2022/02/18 06:49:28;;;;;;;27.67;5.85;;;5.90;99.90;;;;;;5050596;28;20044;-72
2022/02/18 06:51:56;;;;;;;18.63;6.82;;;6.00;99.90;;;;;;5081918;28;20121;-73
2022/02/18 06:54:23;;;;;;;23.30;7.60;;;5.90;99.90;;;;;;5070328;28;20080;-73
2022/02/18 06:56:49;;;;;;;22.25;7.03;;;5.90;99.90;;;;;;5079463;28;20060;-72
2022/02/18 06:59:15;;;;;;;38.33;8.70;;;5.90;99.90;;;;;;5050978;28;20166;-72
2022/02/18 07:01:41;;;;;;;28.20;8.35;;;5.90;99.90;;;;;;5066092;28;20048;-72
2022/02/18 07:04:06;;;;;;;24.10;8.32;;;6.10;99.90;;;;;;5072632;28;20094;-72
2022/02/18 07:06:32;;;;;;;29.92;9.25;;;5.90;99.90;;;;;;5089910;28;20074;-73
2022/02/18 07:08:58;;;;;;;34.90;9.65;;;6.00;99.90;;;;;;5061876;28;20044;-72
2022/02/18 07:11:23;;;;;;;23.27;7.95;;;6.20;99.90;;;;;;5099318;28;20076;-72
2022/02/18 07:13:49;;;;;;;30.33;11.23;;;6.20;99.90;;;;;;5071023;28;20071;-72
2022/02/18 07:16:15;;;;;;;28.42;10.02;;;6.20;99.90;;;;;;5076808;28;20055;-72
2022/02/18 07:18:41;;;;;;;36.58;9.43;;;6.20;99.90;;;;;;5071205;28;20071;-72
2022/02/18 07:21:07;;;;;;;33.00;8.73;;;6.40;99.90;;;;;;5066330;28;20039;-72
2022/02/18 07:23:34;;;;;;;33.22;10.20;;;6.30;99.90;;;;;;5072092;28;20056;-72
2022/02/18 07:26:00;;;;;;;32.97;9.07;;;6.30;99.90;;;;;;5078607;28;20305;-73
2022/02/18 07:28:26;;;;;;;35.60;9.45;;;6.30;99.90;;;;;;5051586;28;20536;-73
2022/02/18 07:30:52;;;;;;;32.20;8.77;;;6.40;99.90;;;;;;5093732;28;20067;-71
2022/02/18 07:33:17;;;;;;;26.80;9.32;;;6.40;99.90;;;;;;5070320;28;20478;-69
2022/02/18 07:35:43;;;;;;;31.17;11.02;;;6.50;99.90;;;;;;5080877;28;20444;-68
2022/02/18 07:38:09;;;;;;;32.03;9.32;;;6.50;99.90;;;;;;5052467;28;20055;-69
2022/02/18 07:40:34;;;;;;;31.10;8.18;;;6.60;99.90;;;;;;5062891;28;20259;-70
2022/02/18 07:43:00;;;;;;;23.90;7.90;;;6.60;99.90;;;;;;5069120;28;20104;-69
2022/02/18 07:45:26;;;;;;;23.27;6.68;;;6.60;99.90;;;;;;5080236;28;20043;-69
2022/02/18 07:47:56;;;;;;;28.45;7.60;;;6.70;99.90;;;;;;5064331;28;20052;-70
2022/02/18 07:50:23;;;;;;;31.10;7.57;;;6.90;99.90;;;;;;5063800;28;20048;-69
2022/02/18 07:52:49;;;;;;;29.95;7.95;;;6.90;99.90;;;;;;5091241;28;20467;-68
2022/02/18 07:55:15;;;;;;;28.67;7.28;;;6.70;99.90;;;;;;5092981;28;20057;-68
2022/02/18 07:57:41;;;;;;;29.05;6.82;;;6.70;99.90;;;;;;5078547;28;20052;-69
2022/02/18 08:00:07;;;;;;;29.88;7.55;;;6.70;99.90;;;;;;5099256;28;20043;-70
2022/02/18 08:02:33;;;;;;;26.20;6.03;;;6.90;99.90;;;;;;5089860;28;20170;-69
2022/02/18 08:04:58;;;;;;;32.55;8.23;;;6.80;99.90;;;;;;5077321;28;20522;-70
2022/02/18 08:07:24;;;;;;;25.88;6.82;;;6.80;99.90;;;;;;5061866;28;20087;-73
2022/02/18 08:09:50;;;;;;;30.58;7.50;;;6.90;99.90;;;;;;5075544;28;20082;-70
2022/02/18 08:12:15;;;;;;;36.17;7.78;;;6.80;99.90;;;;;;5055398;28;20113;-68
2022/02/18 08:17:35;;;;;;;26.58;8.07;;;6.70;99.90;;;;;;5129963;27;1263031;-64
2022/02/18 08:20:02;;;;;;;27.73;8.15;;;6.90;99.90;;;;;;5094050;28;20052;-64
2022/02/18 08:22:27;;;;;;;27.73;6.90;;;6.80;99.90;;;;;;5066093;28;20055;-67
2022/02/18 08:24:54;;;;;;;29.75;7.30;;;6.80;99.90;;;;;;5074079;28;20044;-65
2022/02/18 08:27:20;;;;;;;34.55;6.88;;;6.80;99.90;;;;;;5079530;28;20133;-62
2022/02/18 08:29:46;;;;;;;30.83;6.00;;;7.00;99.90;;;;;;5100194;28;20078;-65
2022/02/18 08:32:13;;;;;;;28.58;6.47;;;7.10;99.90;;;;;;5094394;28;20102;-65
2022/02/18 08:34:39;;;;;;;33.05;6.90;;;7.10;99.90;;;;;;5086084;28;20295;-63
2022/02/18 08:37:05;;;;;;;27.20;8.00;;;7.10;99.90;;;;;;5092671;28;20040;-64
2022/02/18 08:39:31;;;;;;;30.65;7.60;;;7.00;99.90;;;;;;5086539;28;20563;-64
2022/02/18 08:41:56;;;;;;;26.48;6.70;;;7.30;99.90;;;;;;5093390;28;20048;-63
2022/02/18 08:44:22;;;;;;;27.88;9.15;;;7.40;99.90;;;;;;5099297;28;20060;-65
2022/02/18 08:46:48;;;;;;;27.40;8.23;;;7.30;99.90;;;;;;5095138;28;20047;-64
2022/02/18 08:49:14;;;;;;;18.90;6.93;;;7.40;99.90;;;;;;5098759;28;20059;-64
2022/02/18 08:51:40;;;;;;;30.15;10.13;;;7.40;99.90;;;;;;5086276;28;20442;-64
2022/02/18 08:54:06;;;;;;;24.35;10.43;;;7.40;99.90;;;;;;5076383;28;20132;-64
2022/02/18 08:56:33;;;;;;;26.95;10.52;;;7.40;99.90;;;;;;5080345;28;20052;-64
2022/02/18 08:58:59;;;;;;;12.65;6.68;;;7.50;99.90;;;;;;5094222;28;20048;-64
2022/02/18 09:01:26;;;;;;;19.13;8.20;;;7.50;99.90;;;;;;5091981;28;20390;-63
2022/02/18 09:03:52;;;;;;;20.08;7.95;;;7.60;99.90;;;;;;5095410;28;20051;-63
2022/02/18 09:06:17;;;;;;;24.67;10.50;;;7.50;99.90;;;;;;5089999;28;20060;-64
2022/02/18 09:08:43;;;;;;;26.50;10.50;;;7.60;99.90;;;;;;5073629;28;20090;-64
2022/02/18 09:11:09;;;;;;;32.55;13.05;;;7.60;99.90;;;;;;5095544;28;20100;-64
2022/02/18 09:13:35;;;;;;;14.68;8.50;;;7.50;99.90;;;;;;5085260;28;20054;-64
2022/02/18 09:16:00;;;;;;;17.42;7.28;;;7.60;99.90;;;;;;5089191;28;20117;-64
2022/02/18 09:18:26;;;;;;;20.17;7.70;;;7.60;99.90;;;;;;5084827;28;20117;-64
2022/02/18 09:20:52;;;;;;;16.35;8.13;;;7.70;99.90;;;;;;5093178;28;20048;-65
2022/02/18 09:23:17;;;;;;;18.52;10.27;;;7.80;99.90;;;;;;5086572;28;20056;-64
2022/02/18 09:25:43;;;;;;;28.63;13.05;;;7.70;99.90;;;;;;5086568;28;20058;-63
2022/02/18 09:28:09;;;;;;;29.85;11.55;;;7.70;99.90;;;;;;5057175;28;20053;-64
2022/02/18 09:30:41;;;;;;;24.42;11.93;;;7.60;99.90;;;;;;5061496;28;20112;-64
2022/02/18 09:33:07;;;;;;;27.10;11.30;;;7.70;99.90;;;;;;5070281;28;20052;-63
2022/02/18 09:35:33;;;;;;;25.08;10.50;;;7.70;99.90;;;;;;5066781;28;20569;-63
2022/02/18 09:37:59;;;;;;;22.88;10.25;;;7.80;99.90;;;;;;5053750;28;20056;-63
2022/02/18 09:40:24;;;;;;;20.70;9.60;;;7.80;99.90;;;;;;5071749;28;20048;-63
2022/02/18 09:42:51;;;;;;;15.52;5.65;;;8.00;99.90;;;;;;5089090;28;20048;-64
2022/02/18 09:45:18;;;;;;;18.38;10.18;;;8.10;99.90;;;;;;5094468;28;20049;-63
2022/02/18 09:47:47;;;;;;;18.70;10.20;;;8.10;99.90;;;;;;5083206;28;20116;-67
2022/02/18 09:50:13;;;;;;;22.83;9.80;;;8.00;99.90;;;;;;5089654;28;20051;-66
2022/02/18 09:52:39;;;;;;;25.08;11.02;;;8.10;99.90;;;;;;5097319;28;20044;-66
2022/02/18 09:55:06;;;;;;;15.75;6.43;;;8.00;99.90;;;;;;5032246;28;20051;-64
2022/02/18 09:57:34;;;;;;;11.35;6.38;;;8.20;99.90;;;;;;5048102;28;20049;-64
2022/02/18 10:00:02;;;;;;;19.92;7.43;;;8.30;99.90;;;;;;5052674;28;20072;-64
2022/02/18 10:02:28;;;;;;;23.52;9.55;;;8.40;99.90;;;;;;5069979;28;20089;-65
2022/02/18 10:04:54;;;;;;;16.30;8.20;;;8.30;99.90;;;;;;5088444;28;20048;-65
2022/02/18 10:07:20;;;;;;;22.58;9.15;;;8.30;99.90;;;;;;5084416;28;20092;-66
2022/02/18 10:09:48;;;;;;;17.67;8.40;;;8.30;99.90;;;;;;5074140;28;20040;-65
2022/02/18 10:12:14;;;;;;;17.08;7.18;;;8.50;99.90;;;;;;5090074;28;20040;-65
2022/02/18 10:15:03;;;;;;;17.08;7.57;;;8.50;99.90;;;;;;5081782;28;20052;-65
2022/02/18 10:17:43;;;;;;;13.02;6.57;;;8.60;99.90;;;;;;5098868;28;20040;-66
2022/02/18 10:20:23;;;;;;;15.80;6.68;;;8.50;99.90;;;;;;5074867;28;20135;-66
2022/02/18 10:22:57;;;;;;;19.75;6.75;;;8.60;99.90;;;;;;5087654;28;20074;-66
2022/02/18 10:25:24;;;;;;;10.23;4.75;;;8.50;99.90;;;;;;5071673;28;20260;-66
2022/02/18 10:27:51;;;;;;;14.77;6.20;;;8.70;99.90;;;;;;5079240;28;20056;-64
2022/02/18 10:30:26;;;;;;;13.30;6.32;;;8.80;99.90;;;;;;5087323;28;20049;-64
2022/02/18 10:32:56;;;;;;;16.67;6.93;;;8.90;99.90;;;;;;5081225;28;20040;-65
2022/02/18 10:35:33;;;;;;;13.88;6.53;;;8.80;99.90;;;;;;5053653;28;20041;-65
2022/02/18 10:37:59;;;;;;;15.40;7.13;;;8.80;99.90;;;;;;5080698;28;20570;-66
2022/02/18 10:40:25;;;;;;;19.48;6.43;;;8.80;99.90;;;;;;5109674;28;20795;-66
2022/02/18 10:42:53;;;;;;;12.52;5.97;;;8.80;99.90;;;;;;5079030;28;20602;-66
2022/02/18 10:45:24;;;;;;;17.92;7.25;;;9.10;99.90;;;;;;5084819;28;20060;-67
2022/02/18 10:48:04;;;;;;;13.68;7.40;;;8.90;99.90;;;;;;5096887;28;20518;-66
2022/02/18 10:50:30;;;;;;;17.67;6.95;;;9.00;99.90;;;;;;5062511;28;20046;-65
2022/02/18 10:53:20;;;;;;;12.50;6.75;;;9.10;99.90;;;;;;5079326;28;20068;-66
2022/02/18 10:55:47;;;;;;;;;;;9.20;99.90;;;;;;5070948;28;20051;-65
2022/02/18 10:58:12;;;;;;;17.52;6.10;;;9.30;99.90;;;;;;5088970;28;20124;-66
2022/02/18 11:00:38;;;;;;;14.85;7.25;;;9.10;99.90;;;;;;5096038;28;20097;-66
2022/02/18 11:03:04;;;;;;;14.27;6.75;;;9.20;99.90;;;;;;5070285;28;20044;-69
2022/02/18 11:05:30;;;;;;;14.07;6.00;;;9.30;99.90;;;;;;5078919;28;20040;-65
2022/02/18 11:07:57;;;;;;;14.88;6.38;;;9.30;99.90;;;;;;5070662;28;20148;-65
2022/02/18 11:10:41;;;;;;;13.25;6.20;;;9.50;99.90;;;;;;5086166;28;20122;-66
2022/02/18 11:13:06;;;;;;;16.33;6.28;;;9.50;99.90;;;;;;5068908;28;20040;-67
2022/02/18 11:15:35;;;;;;;13.75;6.63;;;9.50;99.90;;;;;;5079065;28;20071;-66
2022/02/18 11:18:01;;;;;;;17.08;7.07;;;9.60;99.90;;;;;;5078440;28;20053;-66
2022/02/18 11:20:27;;;;;;;18.48;6.82;;;9.60;99.90;;;;;;5069183;28;20052;-67
2022/02/18 11:22:55;;;;;;;12.90;6.60;;;9.60;99.90;;;;;;5084569;28;20055;-66
2022/02/18 11:25:22;;;;;;;14.10;6.45;;;9.70;99.90;;;;;;5073703;28;20090;-67
2022/02/18 11:27:48;;;;;;;12.98;5.90;;;9.70;99.90;;;;;;5076619;28;20040;-66
2022/02/18 11:30:14;;;;;;;14.05;6.30;;;9.70;99.90;;;;;;5102901;28;20067;-65
2022/02/18 11:33:09;;;;;;;13.77;6.93;;;9.70;99.90;;;;;;5099154;28;20374;-68
2022/02/18 11:35:55;;;;;;;14.02;6.28;;;9.70;99.90;;;;;;5018031;28;20049;-67
2022/02/18 11:38:23;;;;;;;12.88;6.03;;;9.90;99.90;;;;;;5069698;28;20044;-69
2022/02/18 11:41:25;;;;;;;10.05;5.45;;;9.90;99.90;;;;;;5080937;28;20073;-69
2022/02/18 11:43:51;;;;;;;11.57;5.63;;;10.00;99.90;;;;;;5044691;28;20449;-69
2022/02/18 11:46:26;;;;;;;10.25;6.07;;;10.00;99.90;;;;;;5054764;28;20052;-69
2022/02/18 11:48:56;;;;;;;10.65;5.90;;;9.90;99.90;;;;;;5028449;28;20048;-68
2022/02/18 11:51:26;;;;;;;;;;;9.90;99.90;;;;;;5039648;28;20053;-68
2022/02/18 11:53:57;;;;;;;9.02;5.60;;;10.00;99.90;;;;;;5026826;28;19921;-68
2022/02/18 11:56:35;;;;;;;9.30;4.82;;;10.00;99.90;;;;;;5044397;28;20053;-68
2022/02/18 11:59:02;;;;;;;13.45;5.63;;;10.00;99.90;;;;;;5047638;28;20057;-69
2022/02/18 12:02:03;;;;;;;8.43;5.00;;;10.10;99.90;;;;;;5056808;28;20056;-68
2022/02/18 12:04:29;;;;;;;8.93;5.25;;;10.20;99.90;;;;;;5029032;28;20488;-68
2022/02/18 12:07:15;;;;;;;9.07;5.40;;;10.40;99.90;;;;;;5053614;28;20063;-69
2022/02/18 12:09:49;;;;;;;8.10;4.68;;;10.40;99.90;;;;;;5036481;28;20049;-68
2022/02/18 12:12:20;;;;;;;7.30;4.88;;;10.50;99.90;;;;;;5038652;28;20060;-68
2022/02/18 12:14:50;;;;;;;6.22;4.80;;;10.40;99.90;;;;;;5024430;28;20071;-69
2022/02/18 12:17:18;;;;;;;7.82;4.65;;;10.50;99.90;;;;;;5040175;28;20048;-70
2022/02/18 12:19:45;;;;;;;6.65;4.50;;;10.50;99.90;;;;;;5038583;28;20091;-65
2022/02/18 12:22:11;;;;;;;6.60;4.50;;;10.40;99.90;;;;;;5080595;28;20044;-66
2022/02/18 12:24:40;;;;;;;6.30;4.65;;;10.70;99.90;;;;;;5060091;28;20049;-66
2022/02/18 12:27:32;;;;;;;5.95;4.30;;;10.70;99.90;;;;;;5048169;28;20037;-65
2022/02/18 12:30:02;;;;;;;8.77;4.68;;;10.70;99.90;;;;;;5042832;28;20080;-65
2022/02/18 12:32:28;;;;;;;;;;;10.70;99.90;;;;;;5040194;28;20041;-66
2022/02/18 12:35:05;;;;;;;6.45;4.32;;;10.80;99.90;;;;;;5042804;28;20099;-66
2022/02/18 12:37:33;;;;;;;6.35;4.15;;;10.80;99.90;;;;;;5041375;28;20069;-64
2022/02/18 12:40:00;;;;;;;5.97;3.80;;;10.90;99.90;;;;;;5039957;28;20085;-67
2022/02/18 12:42:31;;;;;;;5.78;4.03;;;10.90;99.90;;;;;;5054414;28;20096;-67
2022/02/18 12:45:00;;;;;;;3.97;3.17;;;10.90;99.90;;;;;;5062556;28;20054;-67
2022/02/18 12:47:28;;;;;;;4.70;3.67;;;11.10;99.90;;;;;;5057996;28;20049;-66
2022/02/18 12:50:07;;;;;;;4.10;3.13;;;11.00;99.90;;;;;;5050653;28;20102;-67